createdAt,value
2022-12-08T00:01:10.751Z,98374.19
2022-12-08T00:03:37.955Z,98367.25
2022-12-08T00:06:24.875Z,98365.44
2022-12-08T00:09:10.149Z,98361.31
2022-12-08T00:11:37.340Z,98354.59
2022-12-08T00:14:04.589Z,98359.28
2022-12-08T00:16:31.652Z,98355.75
2022-12-08T00:18:58.410Z,98353.41
2022-12-08T00:21:25.124Z,98353.63
2022-12-08T00:23:55.264Z,98350.81
2022-12-08T00:26:22.537Z,98352.25
2022-12-08T00:28:49.945Z,98342.44
2022-12-08T00:31:17.287Z,98339.47
2022-12-08T00:33:44.277Z,98341.38
2022-12-08T00:36:13.509Z,98349.63
2022-12-08T00:38:40.951Z,98340.91
2022-12-08T00:41:12.493Z,98340.91
2022-12-08T00:43:40.289Z,98336.06
2022-12-08T00:46:07.029Z,98331.81
2022-12-08T00:48:33.894Z,98325.94
2022-12-08T00:51:00.814Z,98328.41
2022-12-08T00:53:27.673Z,98325.81
2022-12-08T00:55:54.831Z,98326.28
2022-12-08T00:58:21.631Z,98333.13
2022-12-08T01:00:48.400Z,98327.47
2022-12-08T01:03:15.262Z,98331.94
2022-12-08T01:05:42.575Z,98324.50
2022-12-08T01:08:09.490Z,98316.72
2022-12-08T01:10:37.133Z,98319.94
2022-12-08T01:13:04.395Z,98324.28
2022-12-08T01:15:31.366Z,98318.84
2022-12-08T01:17:58.357Z,98314.47
2022-12-08T01:20:25.618Z,98321.44
2022-12-08T01:22:52.377Z,98318.72
2022-12-08T01:25:19.275Z,98321.56
2022-12-08T01:27:46.730Z,98322.28
2022-12-08T01:30:14.215Z,98326.88
2022-12-08T01:32:41.041Z,98324.88
2022-12-08T01:35:08.264Z,98322.53
2022-12-08T01:37:35.093Z,98331.00
2022-12-08T01:40:02.413Z,98327.94
2022-12-08T01:42:30.972Z,98324.88
2022-12-08T01:45:03.228Z,98321.56
2022-12-08T01:47:44.339Z,98325.34
2022-12-08T01:50:14.034Z,98324.38
2022-12-08T01:52:43.501Z,98321.22
2022-12-08T01:55:21.688Z,98320.34
2022-12-08T01:57:51.474Z,98312.00
2022-12-08T02:00:20.243Z,98317.06
2022-12-08T02:03:13.717Z,98307.16
2022-12-08T02:05:42.124Z,98316.69
2022-12-08T02:08:10.879Z,98309.50
2022-12-08T02:10:40.460Z,98319.38
2022-12-08T02:13:10.580Z,98315.25
2022-12-08T02:16:05.495Z,98312.81
2022-12-08T02:19:28.648Z,98310.41
2022-12-08T02:22:06.267Z,98307.59
2022-12-08T02:24:39.322Z,98303.47
2022-12-08T02:27:40.554Z,98302.16
2022-12-08T02:30:47.132Z,98303.22
2022-12-08T02:33:52.903Z,98293.41
2022-12-08T02:36:37.796Z,98296.72
2022-12-08T02:39:25.502Z,98296.16
2022-12-08T02:42:25.067Z,98296.25
2022-12-08T02:45:03.808Z,98292.72
2022-12-08T02:47:30.688Z,98298.97
2022-12-08T02:49:58.217Z,98289.63
2022-12-08T02:52:45.558Z,98287.97
2022-12-08T02:55:44.679Z,98286.75
2022-12-08T02:58:24.353Z,98282.78
2022-12-08T03:01:37.667Z,98276.41
2022-12-08T03:04:23.716Z,98279.94
2022-12-08T03:07:07.107Z,98273.47
2022-12-08T03:09:41.097Z,98275.56
2022-12-08T03:12:18.303Z,98275.94
2022-12-08T03:14:48.736Z,98266.63
2022-12-08T03:17:16.150Z,98270.03
2022-12-08T03:19:44.141Z,98257.78
2022-12-08T03:22:12.081Z,98256.84
2022-12-08T03:24:41.482Z,98255.41
2022-12-08T03:27:22.966Z,98258.72
2022-12-08T03:29:51.716Z,98259.75
2022-12-08T03:32:37.791Z,98257.31
2022-12-08T03:35:08.721Z,98256.47
2022-12-08T03:37:37.224Z,98253.50
2022-12-08T03:40:06.127Z,98255.13
2022-12-08T03:42:33.061Z,98255.50
2022-12-08T03:45:00.085Z,98246.63
2022-12-08T03:47:27.122Z,98247.34
2022-12-08T03:49:53.878Z,98233.19
2022-12-08T03:52:20.692Z,98241.81
2022-12-08T03:54:47.424Z,98240.03
2022-12-08T03:57:14.592Z,98230.09
2022-12-08T03:59:41.379Z,98232.00
2022-12-08T04:02:08.332Z,98227.03
2022-12-08T04:04:35.426Z,98224.69
2022-12-08T04:07:02.233Z,98217.31
2022-12-08T04:09:29.770Z,98226.78
2022-12-08T04:11:56.785Z,98217.91
2022-12-08T04:14:23.726Z,98220.34
2022-12-08T04:16:50.600Z,98216.59
2022-12-08T04:19:17.433Z,98218.69
2022-12-08T04:21:44.172Z,98218.00
2022-12-08T04:24:11.041Z,98207.16
2022-12-08T04:26:37.759Z,98201.25
2022-12-08T04:29:04.939Z,98192.78
2022-12-08T04:31:31.647Z,98188.06
2022-12-08T04:33:58.504Z,98193.44
2022-12-08T04:36:25.187Z,98195.72
2022-12-08T04:38:51.862Z,98193.44
2022-12-08T04:41:18.727Z,98189.69
2022-12-08T04:43:45.696Z,98184.50
2022-12-08T04:46:12.532Z,98186.25
2022-12-08T04:48:39.901Z,98181.72
2022-12-08T04:51:06.828Z,98188.09
2022-12-08T04:53:33.985Z,98183.59
2022-12-08T04:56:00.817Z,98183.59
2022-12-08T04:58:27.652Z,98179.38
2022-12-08T05:00:55.460Z,98175.13
2022-12-08T05:03:28.290Z,98182.69
2022-12-08T05:05:55.980Z,98182.34
2022-12-08T05:08:22.703Z,98178.34
2022-12-08T05:10:49.508Z,98172.09
2022-12-08T05:13:16.312Z,98174.59
2022-12-08T05:15:43.080Z,98172.69
2022-12-08T05:18:10.147Z,98173.66
2022-12-08T05:20:37.378Z,98170.38
2022-12-08T05:23:04.082Z,98172.13
2022-12-08T05:25:30.854Z,98172.84
2022-12-08T05:28:17.746Z,98166.47
2022-12-08T05:30:44.451Z,98171.44
2022-12-08T05:33:11.481Z,98162.03
2022-12-08T05:35:38.329Z,98160.72
2022-12-08T05:38:06.275Z,98164.16
2022-12-08T05:40:33.120Z,98158.94
2022-12-08T05:42:59.835Z,98165.78
2022-12-08T05:45:26.960Z,98165.56
2022-12-08T05:47:54.033Z,98172.03
2022-12-08T05:50:20.955Z,98171.19
2022-12-08T05:52:47.942Z,98174.41
2022-12-08T05:55:15.460Z,98166.75
2022-12-08T05:57:42.131Z,98167.59
2022-12-08T06:00:09.705Z,98165.44
2022-12-08T06:02:37.024Z,98169.34
2022-12-08T06:05:04.284Z,98166.63
2022-12-08T06:07:31.341Z,98169.94
2022-12-08T06:09:58.050Z,98163.34
2022-12-08T06:12:24.829Z,98163.47
2022-12-08T06:14:51.668Z,98151.66
2022-12-08T06:17:18.815Z,98148.38
2022-12-08T06:19:45.588Z,98144.72
2022-12-08T06:22:12.462Z,98145.31
2022-12-08T06:24:39.767Z,98144.25
2022-12-08T06:27:06.810Z,98150.25
2022-12-08T06:29:33.668Z,98147.41
2022-12-08T06:32:01.580Z,98147.19
2022-12-08T06:34:28.562Z,98143.75
2022-12-08T06:36:55.356Z,98147.41
2022-12-08T06:39:22.903Z,98145.66
2022-12-08T06:42:08.411Z,98148.81
2022-12-08T06:44:35.196Z,98151.06
2022-12-08T06:47:02.071Z,98146.56
2022-12-08T06:49:29.153Z,98148.25
2022-12-08T06:51:56.257Z,98144.81
2022-12-08T06:54:22.948Z,98151.91
2022-12-08T06:56:49.615Z,98162.28
2022-12-08T06:59:19.611Z,98150.00
2022-12-08T07:01:47.576Z,98156.13
2022-12-08T07:04:14.539Z,98154.13
2022-12-08T07:06:41.201Z,98144.81
2022-12-08T07:09:07.964Z,98149.03
2022-12-08T07:11:35.103Z,98150.34
2022-12-08T07:14:02.213Z,98149.75
2022-12-08T07:16:29.026Z,98153.75
2022-12-08T07:18:56.018Z,98145.06
2022-12-08T07:21:23.081Z,98153.91
2022-12-08T07:23:55.996Z,98156.50
2022-12-08T07:26:24.928Z,98152.81
2022-12-08T07:28:51.824Z,98150.69
2022-12-08T07:31:24.410Z,98152.22
2022-12-08T07:33:52.485Z,98150.56
2022-12-08T07:36:19.987Z,98146.19
2022-12-08T07:38:47.020Z,98155.41
2022-12-08T07:41:19.073Z,98153.59
2022-12-08T07:43:46.072Z,98151.00
2022-12-08T07:46:14.731Z,98155.41
2022-12-08T07:48:42.096Z,98162.59
2022-12-08T07:51:10.227Z,98154.78
2022-12-08T07:53:42.561Z,98154.91
2022-12-08T07:56:10.987Z,98158.66
2022-12-08T07:58:38.238Z,98153.28
2022-12-08T08:01:05.527Z,98145.94
2022-12-08T08:03:33.359Z,98148.88
2022-12-08T08:06:04.623Z,98148.28
2022-12-08T08:08:32.105Z,98147.66
2022-12-08T08:10:59.572Z,98149.47
2022-12-08T08:13:26.551Z,98148.25
2022-12-08T08:15:53.768Z,98143.91
2022-12-08T08:18:20.667Z,98150.84
2022-12-08T08:20:48.708Z,98140.00
2022-12-08T08:23:15.413Z,98146.25
2022-12-08T08:25:42.789Z,98142.69
2022-12-08T08:28:09.601Z,98149.56
2022-12-08T08:30:36.527Z,98145.19
2022-12-08T08:33:03.698Z,98147.44
2022-12-08T08:35:31.002Z,98152.06
2022-12-08T08:37:57.929Z,98146.88
2022-12-08T08:40:25.156Z,98155.84
2022-12-08T08:42:52.615Z,98150.16
2022-12-08T08:45:19.519Z,98139.78
2022-12-08T08:47:46.505Z,98151.34
2022-12-08T08:50:13.255Z,98150.66
2022-12-08T08:52:40.419Z,98156.38
2022-12-08T08:55:07.563Z,98154.16
2022-12-08T08:57:34.731Z,98149.91
2022-12-08T09:00:01.495Z,98153.69
2022-12-08T09:02:28.501Z,98152.25
2022-12-08T09:04:56.169Z,98157.81
2022-12-08T09:07:23.158Z,98148.75
2022-12-08T09:09:50.062Z,98151.34
2022-12-08T09:12:16.878Z,98145.41
2022-12-08T09:14:43.713Z,98150.59
2022-12-08T09:17:11.015Z,98144.97
2022-12-08T09:19:38.259Z,98138.44
2022-12-08T09:22:05.762Z,98148.19
2022-12-08T09:24:32.482Z,98145.75
2022-12-08T09:26:59.771Z,98152.63
2022-12-08T09:29:31.074Z,98149.72
2022-12-08T09:32:01.208Z,98155.97
2022-12-08T09:34:28.077Z,98156.22
2022-12-08T09:36:54.995Z,98146.78
2022-12-08T09:39:21.824Z,98144.41
2022-12-08T09:41:57.435Z,98144.03
2022-12-08T09:44:44.536Z,98137.69
2022-12-08T09:47:36.227Z,98136.63
2022-12-08T09:50:20.167Z,98126.00
2022-12-08T09:53:13.065Z,98121.09
2022-12-08T09:56:01.418Z,98109.91
2022-12-08T09:58:36.543Z,98116.50
2022-12-08T10:01:03.558Z,98117.75
2022-12-08T10:03:31.277Z,98111.63
2022-12-08T10:06:08.543Z,98127.78
2022-12-08T10:09:32.160Z,98111.94
2022-12-08T10:12:11.279Z,98109.22
2022-12-08T10:14:45.033Z,98107.44
2022-12-08T10:17:20.841Z,98101.75
2022-12-08T10:19:48.778Z,98108.94
2022-12-08T10:22:24.416Z,98102.69
2022-12-08T10:25:44.340Z,98099.91
2022-12-08T10:28:12.313Z,98092.22
2022-12-08T10:30:39.657Z,98101.53
2022-12-08T10:33:13.342Z,98093.31
2022-12-08T10:35:45.771Z,98095.66
2022-12-08T10:38:33.253Z,98096.34
2022-12-08T10:41:18.391Z,98094.94
2022-12-08T10:43:50.485Z,98089.50
2022-12-08T10:46:22.818Z,98087.59
2022-12-08T10:48:52.621Z,98082.97
2022-12-08T10:51:26.314Z,98092.38
2022-12-08T10:53:53.198Z,98081.06
2022-12-08T10:56:19.965Z,98079.72
2022-12-08T10:58:48.559Z,98081.88
2022-12-08T11:01:25.839Z,98070.81
2022-12-08T11:04:04.440Z,98069.59
2022-12-08T11:06:35.073Z,98064.97
2022-12-08T11:09:03.404Z,98066.56
2022-12-08T11:11:48.477Z,98059.56
2022-12-08T11:14:30.172Z,98059.72
2022-12-08T11:17:06.932Z,98056.16
2022-12-08T11:19:38.287Z,98057.03
2022-12-08T11:22:42.581Z,98058.81
2022-12-08T11:25:18.799Z,98062.50
2022-12-08T11:27:47.841Z,98060.72
2022-12-08T11:30:24.052Z,98061.28
2022-12-08T11:32:55.993Z,98057.03
2022-12-08T11:35:40.925Z,98046.13
2022-12-08T11:38:21.683Z,98052.72
2022-12-08T11:40:52.942Z,98048.88
2022-12-08T11:43:35.023Z,98056.53
2022-12-08T11:46:05.480Z,98047.72
2022-12-08T11:48:47.730Z,98055.53
2022-12-08T11:51:38.616Z,98046.81
2022-12-08T11:54:28.746Z,98047.78
2022-12-08T11:57:01.350Z,98042.16
2022-12-08T11:59:42.068Z,98034.22
2022-12-08T12:02:14.739Z,98029.38
2022-12-08T12:04:47.440Z,98036.59
2022-12-08T12:07:59.566Z,98037.97
2022-12-08T12:10:51.971Z,98041.81
2022-12-08T12:13:51.633Z,98039.38
2022-12-08T12:16:48.447Z,98043.00
2022-12-08T12:19:18.180Z,98040.72
2022-12-08T12:21:49.161Z,98030.16
2022-12-08T12:24:26.047Z,98031.19
2022-12-08T12:26:59.262Z,98031.66
2022-12-08T12:29:31.831Z,98032.47
2022-12-08T12:32:01.706Z,98036.09
2022-12-08T12:34:36.044Z,98014.97
2022-12-08T12:37:15.419Z,98018.13
2022-12-08T12:40:21.792Z,98032.84
2022-12-08T12:43:36.468Z,98030.59
2022-12-08T12:46:59.158Z,98027.75
2022-12-08T12:50:08.647Z,98028.44
2022-12-08T12:52:37.491Z,98021.34
2022-12-08T12:55:46.261Z,98022.16
2022-12-08T12:58:22.542Z,98015.31
2022-12-08T13:00:49.307Z,98024.91
2022-12-08T13:03:17.435Z,98019.44
2022-12-08T13:05:53.362Z,98007.13
2022-12-08T13:08:23.445Z,98017.13
2022-12-08T13:11:00.536Z,98022.03
2022-12-08T13:13:28.247Z,98013.56
2022-12-08T13:15:57.128Z,98017.44
2022-12-08T13:18:47.013Z,98022.63
2022-12-08T13:21:16.656Z,98012.34
2022-12-08T13:23:47.215Z,98010.66
2022-12-08T13:26:27.240Z,98000.31
2022-12-08T13:29:24.006Z,98005.22
2022-12-08T13:32:03.720Z,98014.00
2022-12-08T13:34:51.828Z,98009.44
2022-12-08T13:37:52.347Z,98013.00
2022-12-08T13:40:25.012Z,97995.34
2022-12-08T13:43:19.970Z,97997.97
2022-12-08T13:46:52.501Z,97998.63
2022-12-08T13:55:35.524Z,98007.50
2022-12-08T13:57:32.921Z,98001.94
2022-12-08T14:00:02.981Z,98013.00
2022-12-08T14:02:47.806Z,98017.78
2022-12-08T14:05:18.988Z,98015.31
2022-12-08T14:08:36.276Z,98019.94
2022-12-08T14:11:06.725Z,98016.94
2022-12-08T14:13:34.573Z,98016.38
2022-12-08T14:16:02.628Z,98017.78
2022-12-08T14:18:31.740Z,98018.63
2022-12-08T14:21:22.395Z,98021.03
2022-12-08T14:23:49.469Z,98022.16
2022-12-08T14:26:16.654Z,98019.16
2022-12-08T14:28:45.194Z,98018.88
2022-12-08T14:31:15.020Z,98017.66
2022-12-08T14:33:42.725Z,98017.78
2022-12-08T14:36:10.127Z,98023.22
2022-12-08T14:38:37.344Z,98025.34
2022-12-08T14:41:07.026Z,98030.59
2022-12-08T14:43:34.038Z,98020.63
2022-12-08T14:46:05.317Z,98031.44
2022-12-08T14:48:45.330Z,98027.75
2022-12-08T14:51:32.718Z,98026.13
2022-12-08T14:54:07.141Z,98030.22
2022-12-08T14:56:38.829Z,98029.53
2022-12-08T14:59:12.439Z,98031.56
2022-12-08T15:01:39.672Z,98038.16
2022-12-08T15:04:20.030Z,98039.63
2022-12-08T15:06:58.533Z,98035.88
2022-12-08T15:09:32.781Z,98033.81
2022-12-08T15:12:07.372Z,98036.53
2022-12-08T15:14:35.891Z,98041.09
2022-12-08T15:17:03.255Z,98043.13
2022-12-08T15:19:32.696Z,98038.44
2022-12-08T15:22:18.917Z,98040.94
2022-12-08T15:24:45.618Z,98037.78
2022-12-08T15:27:18.759Z,98042.06
2022-12-08T15:29:47.083Z,98040.22
2022-12-08T15:32:17.474Z,98052.13
2022-12-08T15:34:44.260Z,98045.69
2022-12-08T15:37:22.569Z,98047.72
2022-12-08T15:39:49.902Z,98052.59
2022-12-08T15:42:16.792Z,98048.69
2022-12-08T15:44:43.960Z,98050.69
2022-12-08T15:47:16.632Z,98047.84
2022-12-08T15:49:43.525Z,98052.16
2022-12-08T15:52:20.691Z,98051.19
2022-12-08T15:54:47.788Z,98054.25
2022-12-08T15:58:17.033Z,98054.81
2022-12-08T16:00:51.786Z,98050.63
2022-12-08T16:04:14.297Z,98056.69
2022-12-08T16:09:39.793Z,98049.56
2022-12-08T16:13:13.318Z,98057.25
2022-12-08T16:18:24.134Z,98056.22
2022-12-08T16:21:12.485Z,98058.84
2022-12-08T16:23:45.417Z,98039.75
2022-12-08T16:27:06.875Z,98050.31
2022-12-08T16:29:05.872Z,98057.47
2022-12-08T16:31:33.164Z,98050.63
2022-12-08T16:34:00.498Z,98054.78
2022-12-08T16:36:27.287Z,98052.53
2022-12-08T16:38:54.243Z,98045.19
2022-12-08T16:41:39.744Z,98056.53
2022-12-08T16:44:06.876Z,98060.09
2022-12-08T16:46:33.911Z,98049.50
2022-12-08T16:49:00.820Z,98046.66
2022-12-08T16:51:27.832Z,98060.84
2022-12-08T16:53:58.680Z,98059.69
2022-12-08T16:56:32.213Z,98049.03
2022-12-08T16:59:00.467Z,98058.06
2022-12-08T17:01:27.799Z,98056.88
2022-12-08T17:04:29.866Z,98056.72
2022-12-08T17:06:42.303Z,98059.44
2022-12-08T17:09:09.454Z,98062.03
2022-12-08T17:11:43.081Z,98065.69
2022-12-08T17:14:13.588Z,98066.91
2022-12-08T17:16:41.445Z,98060.66
2022-12-08T17:19:09.122Z,98061.56
2022-12-08T17:21:36.074Z,98055.56
2022-12-08T17:24:03.041Z,98063.47
2022-12-08T17:26:30.784Z,98061.16
2022-12-08T17:29:01.540Z,98058.16
2022-12-08T17:31:30.807Z,98056.72
2022-12-08T17:34:00.108Z,98055.91
2022-12-08T17:36:27.346Z,98054.22
2022-12-08T17:38:54.762Z,98064.16
2022-12-08T17:41:21.599Z,98059.88
2022-12-08T17:43:49.161Z,98066.53
2022-12-08T17:46:20.232Z,98069.81
2022-12-08T17:48:47.270Z,98063.69
2022-12-08T17:51:15.443Z,98061.50
2022-12-08T17:53:46.190Z,98068.09
2022-12-08T17:56:19.893Z,98067.09
2022-12-08T17:58:52.627Z,98064.22
2022-12-08T18:01:21.231Z,98061.06
2022-12-08T18:03:47.953Z,98062.56
2022-12-08T18:06:15.001Z,98060.25
2022-12-08T18:08:41.887Z,98059.53
2022-12-08T18:11:14.934Z,98055.25
2022-12-08T18:13:41.626Z,98059.47
2022-12-08T18:16:08.870Z,98055.84
2022-12-08T18:18:35.750Z,98060.69
2022-12-08T18:21:02.524Z,98062.38
2022-12-08T18:23:29.506Z,98067.53
2022-12-08T18:25:57.028Z,98065.91
2022-12-08T18:28:24.261Z,98071.66
2022-12-08T18:30:51.676Z,98064.81
2022-12-08T18:33:18.600Z,98072.47
2022-12-08T18:35:45.749Z,98058.41
2022-12-08T18:38:12.567Z,98065.41
2022-12-08T18:40:39.721Z,98066.59
2022-12-08T18:43:06.608Z,98069.91
2022-12-08T18:45:34.483Z,98071.78
2022-12-08T18:48:01.660Z,98071.81
2022-12-08T18:50:28.374Z,98066.06
2022-12-08T18:52:55.209Z,98069.78
2022-12-08T18:55:21.880Z,98062.63
2022-12-08T18:57:48.673Z,98067.59
2022-12-08T19:00:18.656Z,98066.41
2022-12-08T19:02:46.010Z,98058.38
2022-12-08T19:05:13.790Z,98063.81
2022-12-08T19:07:42.764Z,98054.38
2022-12-08T19:10:10.649Z,98065.72
2022-12-08T19:12:37.913Z,98064.41
2022-12-08T19:15:06.195Z,98075.25
2022-12-08T19:17:33.323Z,98072.34
2022-12-08T19:20:00.183Z,98073.91
2022-12-08T19:22:27.039Z,98083.91
2022-12-08T19:24:54.085Z,98071.97
2022-12-08T19:27:21.116Z,98075.06
2022-12-08T19:29:48.178Z,98074.69
2022-12-08T19:32:15.087Z,98065.50
2022-12-08T19:34:42.299Z,98066.91
2022-12-08T19:37:12.777Z,98064.34
2022-12-08T19:39:59.835Z,98071.53
2022-12-08T19:42:45.965Z,98071.31
2022-12-08T19:45:21.692Z,98069.66
2022-12-08T19:47:48.930Z,98072.13
2022-12-08T19:50:35.344Z,98070.72
2022-12-08T19:53:03.871Z,98081.81
2022-12-08T19:55:30.847Z,98084.41
2022-12-08T19:57:57.778Z,98084.41
2022-12-08T20:00:24.985Z,98079.78
2022-12-08T20:02:52.186Z,98075.41
2022-12-08T20:05:19.993Z,98076.59
2022-12-08T20:07:47.376Z,98086.03
2022-12-08T20:10:19.922Z,98086.97
2022-12-08T20:12:46.793Z,98088.84
2022-12-08T20:15:15.029Z,98079.31
2022-12-08T20:17:42.801Z,98087.50
2022-12-08T20:20:10.627Z,98085.00
2022-12-08T20:22:37.619Z,98092.69
2022-12-08T20:25:05.476Z,98084.06
2022-12-08T20:27:34.231Z,98085.03
2022-12-08T20:30:01.306Z,98088.09
2022-12-08T20:32:28.031Z,98085.63
2022-12-08T20:34:54.832Z,98084.91
2022-12-08T20:37:21.661Z,98092.00
2022-12-08T20:39:48.957Z,98096.94
2022-12-08T20:42:15.694Z,98093.16
2022-12-08T20:44:44.735Z,98101.31
2022-12-08T20:47:12.862Z,98092.09
2022-12-08T20:49:40.641Z,98096.00
2022-12-08T20:52:08.303Z,98092.25
2022-12-08T20:54:35.989Z,98096.59
2022-12-08T20:57:03.031Z,98092.34
2022-12-08T20:59:30.189Z,98090.44
2022-12-08T21:01:58.592Z,98094.44
2022-12-08T21:04:25.776Z,98088.19
2022-12-08T21:06:53.093Z,98082.31
2022-12-08T21:09:20.177Z,98082.16
2022-12-08T21:11:46.968Z,98089.59
2022-12-08T21:14:14.628Z,98083.09
2022-12-08T21:16:41.470Z,98086.78
2022-12-08T21:19:08.721Z,98080.66
2022-12-08T21:21:35.527Z,98090.53
2022-12-08T21:24:03.487Z,98094.34
2022-12-08T21:26:30.927Z,98090.91
2022-12-08T21:28:59.080Z,98099.06
2022-12-08T21:31:27.143Z,98099.75
2022-12-08T21:33:55.401Z,98090.09
2022-12-08T21:36:23.042Z,98086.13
2022-12-08T21:38:50.975Z,98094.72
2022-12-08T21:41:40.563Z,98096.50
2022-12-08T21:44:10.403Z,98103.06
2022-12-08T21:46:38.026Z,98094.38
2022-12-08T21:49:05.167Z,98096.72
2022-12-08T21:51:34.221Z,98099.78
2022-12-08T21:54:01.424Z,98105.44
2022-12-08T21:56:28.278Z,98097.88
2022-12-08T21:58:56.258Z,98099.22
2022-12-08T22:01:23.215Z,98100.97
2022-12-08T22:03:50.320Z,98105.19
2022-12-08T22:06:17.739Z,98102.50
2022-12-08T22:08:44.793Z,98098.16
2022-12-08T22:11:12.449Z,98094.59
2022-12-08T22:13:41.658Z,98082.91
2022-12-08T22:16:12.738Z,98092.22
2022-12-08T22:18:39.712Z,98095.28
2022-12-08T22:21:15.504Z,98093.16
2022-12-08T22:23:42.910Z,98090.59
2022-12-08T22:26:11.016Z,98089.31
2022-12-08T22:28:40.267Z,98092.22
2022-12-08T22:31:16.671Z,98087.53
2022-12-08T22:33:43.972Z,98091.66
2022-12-08T22:36:18.993Z,98086.47
2022-12-08T22:38:47.066Z,98088.25
2022-12-08T22:41:14.044Z,98086.34
2022-12-08T22:43:41.538Z,98086.34
2022-12-08T22:46:15.675Z,98085.63
2022-12-08T22:48:42.704Z,98087.31
2022-12-08T22:51:09.786Z,98082.34
2022-12-08T22:53:37.459Z,98091.88
2022-12-08T22:56:06.037Z,98091.91
2022-12-08T22:58:33.811Z,98088.94
2022-12-08T23:01:00.977Z,98086.34
2022-12-08T23:03:28.191Z,98091.06
2022-12-08T23:05:55.406Z,98092.34
2022-12-08T23:08:22.693Z,98094.84
2022-12-08T23:10:52.374Z,98090.13
2022-12-08T23:13:19.332Z,98084.72
2022-12-08T23:15:46.931Z,98084.47
2022-12-08T23:18:15.216Z,98092.50
2022-12-08T23:20:42.283Z,98088.72
2022-12-08T23:23:09.483Z,98093.06
2022-12-08T23:25:43.072Z,98091.19
2022-12-08T23:28:11.454Z,98089.06
2022-12-08T23:30:42.006Z,98083.28
2022-12-08T23:33:09.425Z,98097.31
2022-12-08T23:35:36.579Z,98100.97
2022-12-08T23:38:03.901Z,98092.50
2022-12-08T23:40:30.898Z,98085.41
2022-12-08T23:42:58.213Z,98092.72
2022-12-08T23:45:25.416Z,98091.53
2022-12-08T23:47:52.496Z,98094.13
2022-12-08T23:50:19.295Z,98086.94
2022-12-08T23:52:46.362Z,98092.97
2022-12-08T23:55:13.565Z,98094.50
2022-12-08T23:57:41.026Z,98091.75
